Webster, North Dakota
Current Conditions -  °F | °C
As of 1:15 PM on Saturday 25 Oct 2014 (Local Time) from KDVL Reporting Station
Clear Clear  
Wind Chill: 55°   Ceiling: Unl
Heat Index: 55°   Visibility: 10mi
Dew Point: 28°   Wind: 14mph
Humidity: 36%   Direction: 280°W
Pressure: 30.09"   Gusts: NA
Location:  48.28°N, 98.88°W
Report Text: KDVL 251815Z AUTO 28012KT 10SM CLR 13/M02 A3009 RMK AO1
Loading
Personal Weather Stations






























Interactive Weather Map
Tropical Storm Tracking
New forecast layout! Learn more

10-Day Weather Forecast

Advertisements
Track Severe Weather on mobile